Home

PKWA Terminal Aerodrome Forecast (TAF)small logo


TAF provided by NWS Guam
2014/08/29 00:00
TAF PKWA 282338Z 2900/2924 20008KT P6SM VCSH FEW020 SCT050 SCT140

      



Site Map | Contact Us | Copyright © 2007 Atmospheric Technology Services Company. All rights reserved.